createdAt,value
2019-05-30T00:00:16.584Z,91.76
2019-05-30T00:01:05.892Z,92.14
2019-05-30T00:02:05.917Z,91.76
2019-05-30T00:03:06.034Z,91.85
2019-05-30T00:04:05.952Z,91.85
2019-05-30T00:05:05.953Z,91.47
2019-05-30T00:06:05.999Z,91.00
2019-05-30T00:07:05.926Z,90.91
2019-05-30T00:08:06.014Z,90.72
2019-05-30T00:09:06.087Z,90.81
2019-05-30T00:10:05.990Z,90.72
2019-05-30T00:11:05.984Z,90.81
2019-05-30T00:12:06.121Z,90.62
2019-05-30T00:13:05.987Z,90.53
2019-05-30T00:14:06.230Z,90.81
2019-05-30T00:15:06.582Z,90.05
2019-05-30T00:16:06.322Z,90.24
2019-05-30T00:17:06.038Z,90.15
2019-05-30T00:18:06.049Z,90.72
2019-05-30T00:19:06.160Z,90.72
2019-05-30T00:20:06.175Z,90.81
2019-05-30T00:21:06.083Z,91.28
2019-05-30T00:22:06.212Z,91.28
2019-05-30T00:23:06.120Z,91.66
2019-05-30T00:24:06.281Z,91.95
2019-05-30T00:25:06.418Z,91.28
2019-05-30T00:26:07.487Z,92.14
2019-05-30T00:27:06.657Z,91.76
2019-05-30T00:28:07.486Z,91.85
2019-05-30T00:29:06.698Z,92.04
2019-05-30T00:30:20.008Z,91.76
2019-05-30T00:31:06.604Z,91.76
2019-05-30T00:32:06.263Z,91.76
2019-05-30T00:33:07.058Z,91.85
2019-05-30T00:34:06.194Z,91.47
2019-05-30T00:35:06.222Z,92.33
2019-05-30T00:36:06.241Z,91.85
2019-05-30T00:37:07.434Z,92.14
2019-05-30T00:38:06.267Z,92.04
2019-05-30T00:39:06.591Z,92.33
2019-05-30T00:40:06.260Z,92.23
2019-05-30T00:41:06.400Z,92.23
2019-05-30T00:42:06.370Z,92.80
2019-05-30T00:43:06.384Z,92.33
2019-05-30T00:44:06.382Z,92.90
2019-05-30T00:45:19.609Z,92.80
2019-05-30T00:46:06.371Z,92.80
2019-05-30T00:47:06.508Z,92.90
2019-05-30T00:48:06.532Z,92.71
2019-05-30T00:49:06.702Z,92.90
2019-05-30T00:50:06.734Z,92.71
2019-05-30T00:51:06.742Z,92.80
2019-05-30T00:52:06.785Z,92.80
2019-05-30T00:53:07.021Z,92.80
2019-05-30T00:54:07.028Z,92.80
2019-05-30T00:55:07.033Z,93.08
2019-05-30T00:56:06.845Z,92.80
2019-05-30T00:57:06.989Z,92.80
2019-05-30T00:58:07.440Z,92.90
2019-05-30T00:59:06.928Z,92.99
2019-05-30T01:00:07.138Z,92.90
2019-05-30T01:01:07.144Z,93.18
2019-05-30T01:02:07.020Z,92.90
2019-05-30T01:03:08.521Z,92.80
2019-05-30T01:04:07.140Z,92.99
2019-05-30T01:05:07.875Z,92.90
2019-05-30T01:06:07.259Z,92.90
2019-05-30T01:07:07.231Z,92.80
2019-05-30T01:08:07.216Z,92.99
2019-05-30T01:09:07.434Z,93.18
2019-05-30T01:10:07.443Z,92.04
2019-05-30T01:11:07.382Z,92.99
2019-05-30T01:12:07.395Z,92.99
2019-05-30T01:13:07.278Z,92.90
2019-05-30T01:14:07.474Z,92.42
2019-05-30T01:15:07.468Z,92.04
2019-05-30T01:16:07.322Z,92.14
2019-05-30T01:17:07.383Z,92.23
2019-05-30T01:18:07.382Z,92.80
2019-05-30T01:19:07.356Z,92.80
2019-05-30T01:20:07.458Z,92.80
2019-05-30T01:21:07.426Z,93.37
2019-05-30T01:22:07.584Z,93.46
2019-05-30T01:23:07.507Z,93.18
2019-05-30T01:24:07.699Z,93.27
2019-05-30T01:25:07.845Z,93.08
2019-05-30T01:26:07.648Z,92.52
2019-05-30T01:27:07.638Z,93.18
2019-05-30T01:28:07.827Z,93.18
2019-05-30T01:29:07.770Z,93.18
2019-05-30T01:30:07.950Z,93.27
2019-05-30T01:31:10.173Z,93.46
2019-05-30T01:32:07.619Z,93.27
2019-05-30T01:33:08.056Z,92.99
2019-05-30T01:34:07.918Z,92.90
2019-05-30T01:35:08.078Z,93.18
2019-05-30T01:36:07.931Z,92.80
2019-05-30T01:37:07.821Z,92.80
2019-05-30T01:38:08.101Z,92.61
2019-05-30T01:39:08.006Z,92.61
2019-05-30T01:40:08.452Z,92.80
2019-05-30T01:41:07.969Z,92.80
2019-05-30T01:42:07.984Z,92.90
2019-05-30T01:43:08.151Z,92.71
2019-05-30T01:44:08.221Z,92.85
2019-05-30T01:45:08.313Z,92.76
2019-05-30T01:46:08.259Z,92.85
2019-05-30T01:47:06.915Z,93.42
2019-05-30T01:48:07.028Z,93.42
2019-05-30T01:49:06.987Z,93.42
2019-05-30T01:50:06.951Z,92.85
2019-05-30T01:51:06.999Z,93.23
2019-05-30T01:52:06.956Z,93.42
2019-05-30T01:53:06.983Z,93.04
2019-05-30T01:54:06.965Z,93.61
2019-05-30T01:55:07.039Z,93.51
2019-05-30T01:56:07.203Z,93.51
2019-05-30T01:57:07.063Z,93.80
2019-05-30T01:58:07.286Z,93.61
2019-05-30T01:59:07.053Z,93.80
2019-05-30T02:00:18.771Z,93.80
2019-05-30T02:01:19.109Z,93.80
2019-05-30T02:02:07.307Z,93.51
2019-05-30T02:03:07.165Z,93.61
2019-05-30T02:04:07.353Z,93.89
2019-05-30T02:05:07.566Z,93.61
2019-05-30T02:06:07.378Z,93.51
2019-05-30T02:07:07.302Z,93.89
2019-05-30T02:08:07.332Z,93.23
2019-05-30T02:09:07.416Z,93.23
2019-05-30T02:10:07.446Z,93.80
2019-05-30T02:11:07.498Z,93.23
2019-05-30T02:12:07.601Z,93.42
2019-05-30T02:13:07.555Z,93.32
2019-05-30T02:14:07.741Z,93.70
2019-05-30T02:15:07.786Z,93.89
2019-05-30T02:16:07.814Z,93.42
2019-05-30T02:17:07.850Z,93.99
2019-05-30T02:18:07.709Z,93.42
2019-05-30T02:19:07.936Z,92.85
2019-05-30T02:20:07.955Z,92.76
2019-05-30T02:21:07.894Z,92.94
2019-05-30T02:22:07.973Z,92.57
2019-05-30T02:23:08.076Z,92.76
2019-05-30T02:24:07.975Z,93.04
2019-05-30T02:25:08.272Z,93.70
2019-05-30T02:26:08.241Z,93.61
2019-05-30T02:27:08.340Z,93.80
2019-05-30T02:28:08.246Z,93.99
2019-05-30T02:29:08.350Z,93.32
2019-05-30T02:30:09.296Z,91.90
2019-05-30T02:31:08.942Z,92.19
2019-05-30T02:32:09.020Z,92.57
2019-05-30T02:33:09.692Z,92.85
2019-05-30T02:34:07.966Z,92.85
2019-05-30T02:35:08.352Z,92.76
2019-05-30T02:36:08.512Z,92.66
2019-05-30T02:37:08.534Z,92.76
2019-05-30T02:38:09.204Z,92.00
2019-05-30T02:39:09.660Z,92.09
2019-05-30T02:40:10.515Z,91.71
2019-05-30T02:41:08.113Z,91.71
2019-05-30T02:42:07.921Z,91.71
2019-05-30T02:43:08.171Z,91.90
2019-05-30T02:44:08.093Z,92.09
2019-05-30T02:45:08.337Z,91.90
2019-05-30T02:46:08.475Z,91.14
2019-05-30T02:47:07.883Z,91.14
2019-05-30T02:48:09.339Z,91.43
2019-05-30T02:49:11.007Z,91.24
2019-05-30T02:50:09.066Z,91.90
2019-05-30T02:51:08.468Z,91.14
2019-05-30T02:52:08.590Z,91.05
2019-05-30T02:53:08.301Z,91.24
2019-05-30T02:54:09.338Z,90.95
2019-05-30T02:55:09.123Z,92.00
2019-05-30T02:56:08.084Z,91.90
2019-05-30T02:57:08.067Z,92.00
2019-05-30T02:58:08.608Z,91.14
2019-05-30T02:59:09.265Z,91.24
2019-05-30T03:00:12.458Z,91.43
2019-05-30T03:01:09.171Z,91.14
2019-05-30T03:02:12.348Z,91.24
2019-05-30T03:03:11.150Z,91.05
2019-05-30T03:04:08.705Z,90.95
2019-05-30T03:05:09.316Z,91.14
2019-05-30T03:06:09.242Z,91.14
2019-05-30T03:07:09.021Z,91.05
2019-05-30T03:08:09.839Z,91.14
2019-05-30T03:09:09.154Z,91.14
2019-05-30T03:10:11.781Z,91.14
2019-05-30T03:11:10.298Z,91.33
2019-05-30T03:12:09.123Z,91.14
2019-05-30T03:13:08.402Z,91.33
2019-05-30T03:14:12.057Z,91.14
2019-05-30T03:16:09.372Z,91.24
2019-05-30T03:17:10.222Z,91.05
2019-05-30T03:18:09.923Z,91.05
2019-05-30T03:19:08.510Z,91.33
2019-05-30T03:20:14.894Z,91.05
2019-05-30T03:21:10.265Z,91.14
2019-05-30T03:22:09.538Z,91.43
2019-05-30T03:23:09.661Z,91.43
2019-05-30T03:24:11.213Z,91.14
2019-05-30T03:25:10.404Z,91.14
2019-05-30T03:26:10.801Z,90.95
2019-05-30T03:27:09.933Z,91.81
2019-05-30T03:28:09.117Z,91.90
2019-05-30T03:29:10.007Z,91.71
2019-05-30T03:30:16.306Z,92.19
2019-05-30T03:31:14.008Z,92.09
2019-05-30T03:32:49.135Z,92.19
2019-05-30T03:33:24.429Z,92.47
2019-05-30T03:34:16.486Z,91.81
2019-05-30T03:35:15.075Z,92.09
2019-05-30T03:36:15.458Z,91.90
2019-05-30T03:37:16.724Z,91.90
2019-05-30T03:38:08.810Z,92.28
2019-05-30T03:39:09.969Z,91.43
2019-05-30T03:40:08.005Z,91.62
2019-05-30T03:41:09.934Z,92.09
2019-05-30T03:42:09.459Z,92.28
2019-05-30T03:43:09.255Z,92.00
2019-05-30T03:44:09.005Z,92.28
2019-05-30T03:45:10.671Z,92.19
2019-05-30T03:46:08.688Z,92.00
2019-05-30T03:47:09.205Z,92.19
2019-05-30T03:48:09.891Z,92.00
2019-05-30T03:49:08.768Z,92.19
2019-05-30T03:50:09.777Z,92.28
2019-05-30T03:51:09.364Z,91.90
2019-05-30T03:52:09.968Z,92.19
2019-05-30T03:53:11.042Z,92.00
2019-05-30T03:54:09.843Z,92.00
2019-05-30T03:55:10.007Z,92.19
2019-05-30T03:56:09.372Z,91.90
2019-05-30T03:57:09.103Z,92.00
2019-05-30T03:58:09.925Z,92.19
2019-05-30T03:59:09.858Z,92.85
2019-05-30T04:00:09.493Z,92.85
2019-05-30T04:01:08.374Z,92.66
2019-05-30T04:02:09.506Z,92.94
2019-05-30T04:03:10.821Z,92.94
2019-05-30T04:04:09.216Z,92.09
2019-05-30T04:05:09.266Z,92.00
2019-05-30T04:06:10.193Z,92.00
2019-05-30T04:07:09.125Z,92.94
2019-05-30T04:08:09.986Z,93.94
2019-05-30T04:09:09.804Z,93.65
2019-05-30T04:10:09.073Z,93.84
2019-05-30T04:11:09.790Z,93.08
2019-05-30T04:12:10.246Z,93.46
2019-05-30T04:13:09.891Z,93.37
2019-05-30T04:14:08.927Z,92.33
2019-05-30T04:15:09.895Z,92.80
2019-05-30T04:16:08.670Z,92.85
2019-05-30T04:17:10.492Z,93.37
2019-05-30T04:18:09.575Z,93.18
2019-05-30T04:19:09.839Z,93.75
2019-05-30T04:20:09.328Z,93.18
2019-05-30T04:21:09.004Z,93.75
2019-05-30T04:22:09.322Z,93.94
2019-05-30T04:23:08.692Z,94.32
2019-05-30T04:24:09.755Z,94.51
2019-05-30T04:25:08.622Z,95.36
2019-05-30T04:26:09.723Z,95.64
2019-05-30T04:27:09.768Z,95.74
2019-05-30T04:28:09.628Z,95.45
2019-05-30T04:29:09.839Z,95.83
2019-05-30T04:30:09.845Z,96.02
2019-05-30T04:31:09.928Z,96.12
2019-05-30T04:32:09.949Z,95.83
2019-05-30T04:33:19.520Z,95.83
2019-05-30T04:34:08.715Z,95.93
2019-05-30T04:35:08.538Z,95.17
2019-05-30T04:36:08.621Z,95.07
2019-05-30T04:37:08.482Z,94.89
2019-05-30T04:38:08.607Z,94.42
2019-05-30T04:39:08.919Z,94.79
2019-05-30T04:40:08.620Z,94.13
2019-05-30T04:41:08.924Z,94.23
2019-05-30T04:42:09.354Z,94.32
2019-05-30T04:43:09.098Z,93.94
2019-05-30T04:44:09.829Z,93.94
2019-05-30T04:45:09.655Z,93.65
2019-05-30T04:46:10.247Z,93.75
2019-05-30T04:47:09.966Z,93.94
2019-05-30T04:48:09.799Z,93.94
2019-05-30T04:49:10.113Z,93.80
2019-05-30T04:50:10.155Z,93.94
2019-05-30T04:51:10.011Z,93.84
2019-05-30T04:52:12.035Z,93.70
2019-05-30T04:53:10.158Z,93.99
2019-05-30T04:54:10.159Z,92.71
2019-05-30T04:55:10.530Z,93.04
2019-05-30T04:56:10.164Z,92.99
2019-05-30T04:57:10.658Z,93.46
2019-05-30T04:58:08.662Z,94.13
2019-05-30T04:59:08.646Z,94.42
2019-05-30T05:00:08.675Z,94.70
2019-05-30T05:01:08.792Z,94.98
2019-05-30T05:02:08.852Z,94.42
2019-05-30T05:03:08.728Z,94.79
2019-05-30T05:04:08.693Z,94.79
2019-05-30T05:05:09.136Z,94.98
2019-05-30T05:06:08.753Z,94.23
2019-05-30T05:07:08.783Z,94.32
2019-05-30T05:08:08.736Z,94.32
2019-05-30T05:09:08.741Z,94.13
2019-05-30T05:10:08.757Z,93.84
2019-05-30T05:11:12.387Z,93.75
2019-05-30T05:12:08.805Z,93.56
2019-05-30T05:13:08.800Z,93.08
2019-05-30T05:14:08.848Z,93.18
2019-05-30T05:15:08.789Z,93.23
2019-05-30T05:16:22.967Z,92.94
2019-05-30T05:17:08.824Z,92.94
2019-05-30T05:18:08.818Z,93.42
2019-05-30T05:19:08.837Z,93.61
2019-05-30T05:20:08.882Z,94.18
2019-05-30T05:21:08.842Z,93.32
2019-05-30T05:22:08.850Z,92.85
2019-05-30T05:23:08.977Z,92.76
2019-05-30T05:24:08.882Z,92.57
2019-05-30T05:25:08.881Z,92.85
2019-05-30T05:26:08.885Z,92.85
2019-05-30T05:27:10.010Z,92.57
2019-05-30T05:28:08.918Z,92.38
2019-05-30T05:29:08.911Z,92.00
2019-05-30T05:30:08.914Z,92.19
2019-05-30T05:31:08.937Z,92.00
2019-05-30T05:32:08.959Z,91.90
2019-05-30T05:33:08.998Z,91.71
2019-05-30T05:34:08.968Z,91.90
2019-05-30T05:35:09.004Z,90.95
2019-05-30T05:36:08.988Z,91.52
2019-05-30T05:37:09.011Z,91.33
2019-05-30T05:38:09.015Z,91.14
2019-05-30T05:39:09.073Z,91.24
2019-05-30T05:40:09.053Z,90.86
2019-05-30T05:41:09.104Z,90.86
2019-05-30T05:42:09.077Z,90.86
2019-05-30T05:43:09.047Z,90.77
2019-05-30T05:44:09.065Z,90.77
2019-05-30T05:45:09.064Z,90.86
2019-05-30T05:46:09.111Z,90.20
2019-05-30T05:47:09.155Z,90.20
2019-05-30T05:48:09.078Z,89.91
2019-05-30T05:49:09.151Z,90.01
2019-05-30T05:50:09.107Z,90.34
2019-05-30T05:51:09.150Z,89.86
2019-05-30T05:52:11.952Z,89.06
2019-05-30T05:53:09.183Z,87.40
2019-05-30T05:54:09.132Z,86.83
2019-05-30T05:55:09.183Z,87.40
2019-05-30T05:56:09.166Z,88.92
2019-05-30T05:57:09.235Z,89.86
2019-05-30T05:58:09.173Z,89.39
2019-05-30T05:59:09.168Z,91.09
2019-05-30T06:00:09.214Z,91.38
2019-05-30T06:01:09.426Z,90.05
2019-05-30T06:02:09.214Z,88.73
2019-05-30T06:03:09.217Z,88.06
2019-05-30T06:04:13.009Z,87.77
2019-05-30T06:05:09.390Z,89.39
2019-05-30T06:06:09.357Z,89.39
2019-05-30T06:07:09.249Z,89.58
2019-05-30T06:08:09.265Z,87.77
2019-05-30T06:09:09.295Z,86.26
2019-05-30T06:10:09.339Z,87.68
2019-05-30T06:11:09.318Z,86.93
2019-05-30T06:12:09.297Z,87.30
2019-05-30T06:13:09.351Z,86.55
2019-05-30T06:14:09.334Z,85.88
2019-05-30T06:15:09.478Z,86.07
2019-05-30T06:16:09.349Z,86.07
2019-05-30T06:17:09.348Z,87.30
2019-05-30T06:18:09.425Z,87.77
2019-05-30T06:19:09.577Z,88.82
2019-05-30T06:20:09.410Z,87.59
2019-05-30T06:21:09.422Z,85.60
2019-05-30T06:22:09.476Z,86.45
2019-05-30T06:23:09.417Z,86.16
2019-05-30T06:24:09.505Z,85.97
2019-05-30T06:25:09.603Z,86.74
2019-05-30T06:26:09.437Z,84.27
2019-05-30T06:27:09.444Z,81.56
2019-05-30T06:28:09.501Z,81.24
2019-05-30T06:29:09.509Z,81.05
2019-05-30T06:30:09.565Z,82.56
2019-05-30T06:31:09.492Z,84.12
2019-05-30T06:32:09.479Z,80.86
2019-05-30T06:33:09.506Z,81.99
2019-05-30T06:34:09.661Z,80.38
2019-05-30T06:35:09.712Z,79.95
2019-05-30T06:36:09.842Z,83.84
2019-05-30T06:37:12.064Z,82.70
2019-05-30T06:38:09.525Z,84.12
2019-05-30T06:39:09.558Z,85.55
2019-05-30T06:40:09.552Z,85.55
2019-05-30T06:41:09.779Z,87.06
2019-05-30T06:42:09.613Z,87.92
2019-05-30T06:43:09.597Z,85.93
2019-05-30T06:44:09.596Z,84.22
2019-05-30T06:45:09.662Z,85.74
2019-05-30T06:46:09.635Z,84.50
2019-05-30T06:47:09.608Z,83.94
2019-05-30T06:48:09.660Z,87.73
2019-05-30T06:49:09.683Z,89.62
2019-05-30T06:50:09.666Z,87.92
2019-05-30T06:51:09.664Z,89.10
2019-05-30T06:52:09.684Z,87.20
2019-05-30T06:53:09.677Z,85.68
2019-05-30T06:54:09.705Z,85.78
2019-05-30T06:55:09.803Z,85.68
2019-05-30T06:56:09.710Z,86.30
2019-05-30T06:57:09.731Z,86.54
2019-05-30T06:58:09.713Z,88.15
2019-05-30T06:59:09.767Z,89.48
2019-05-30T07:00:09.747Z,89.00
2019-05-30T07:01:09.761Z,89.00
2019-05-30T07:02:09.807Z,86.16
2019-05-30T07:03:09.918Z,85.78
2019-05-30T07:04:10.105Z,86.63
2019-05-30T07:05:10.896Z,86.16
2019-05-30T07:06:10.276Z,85.49
2019-05-30T07:07:10.174Z,85.97
2019-05-30T07:08:09.832Z,83.78
2019-05-30T07:09:09.852Z,84.64
2019-05-30T07:10:09.865Z,85.59
2019-05-30T07:11:09.856Z,85.02
2019-05-30T07:12:11.922Z,86.07
2019-05-30T07:13:09.882Z,85.68
2019-05-30T07:14:09.879Z,84.36
2019-05-30T07:15:09.931Z,82.65
2019-05-30T07:16:09.928Z,81.13
2019-05-30T07:17:09.915Z,84.64
2019-05-30T07:18:10.075Z,79.14
2019-05-30T07:19:09.928Z,81.13
2019-05-30T07:20:10.307Z,86.54
2019-05-30T07:21:09.971Z,86.07
2019-05-30T07:22:09.970Z,85.97
2019-05-30T07:23:09.997Z,88.06
2019-05-30T07:24:09.986Z,87.96
2019-05-30T07:25:09.979Z,91.28
2019-05-30T07:26:10.076Z,86.25
2019-05-30T07:27:10.000Z,84.45
2019-05-30T07:28:10.105Z,87.43
2019-05-30T07:29:10.068Z,87.82
2019-05-30T07:30:10.027Z,86.39
2019-05-30T07:31:10.041Z,86.77
2019-05-30T07:32:13.209Z,82.27
2019-05-30T07:33:10.195Z,86.16
2019-05-30T07:34:10.096Z,86.72
2019-05-30T07:35:10.109Z,87.34
2019-05-30T07:36:10.118Z,84.87
2019-05-30T07:37:10.095Z,83.26
2019-05-30T07:38:10.119Z,86.96
2019-05-30T07:39:10.189Z,90.95
2019-05-30T07:40:10.225Z,89.62
2019-05-30T07:41:10.763Z,85.25
2019-05-30T07:42:10.159Z,81.84
2019-05-30T07:43:10.167Z,83.92
2019-05-30T07:44:10.176Z,89.28
2019-05-30T07:45:10.307Z,83.68
2019-05-30T07:46:10.422Z,86.15
2019-05-30T07:47:10.217Z,87.38
2019-05-30T07:48:10.200Z,81.30
2019-05-30T07:49:10.214Z,81.40
2019-05-30T07:50:10.245Z,83.49
2019-05-30T07:51:10.246Z,83.68
2019-05-30T07:52:10.250Z,82.92
2019-05-30T07:53:10.426Z,78.74
2019-05-30T07:54:10.304Z,83.87
2019-05-30T07:55:10.308Z,79.50
2019-05-30T07:56:10.306Z,80.35
2019-05-30T07:57:10.297Z,80.07
2019-05-30T07:58:10.314Z,83.59
2019-05-30T07:59:10.394Z,75.42
2019-05-30T08:00:10.455Z,80.35
2019-05-30T08:01:10.454Z,83.49
2019-05-30T08:02:10.405Z,81.30
2019-05-30T08:03:10.363Z,80.07
2019-05-30T08:04:10.551Z,79.41
2019-05-30T08:05:23.645Z,83.59
2019-05-30T08:06:10.431Z,81.97
2019-05-30T08:07:10.411Z,82.29
2019-05-30T08:08:10.440Z,80.11
2019-05-30T08:09:10.457Z,79.83
2019-05-30T08:10:10.492Z,82.58
2019-05-30T08:11:10.528Z,82.10
2019-05-30T08:12:10.456Z,82.20
2019-05-30T08:13:10.478Z,77.92
2019-05-30T08:14:10.478Z,72.41
2019-05-30T08:15:10.595Z,79.16
2019-05-30T08:16:10.503Z,76.21
2019-05-30T08:17:10.501Z,76.88
2019-05-30T08:18:10.516Z,75.45
2019-05-30T08:19:10.521Z,78.88
2019-05-30T08:20:10.699Z,77.83
2019-05-30T08:21:10.539Z,72.70
2019-05-30T08:22:10.554Z,73.93
2019-05-30T08:23:10.565Z,79.25
2019-05-30T08:24:10.597Z,80.96
2019-05-30T08:25:10.629Z,78.30
2019-05-30T08:26:10.603Z,74.98
2019-05-30T08:27:10.614Z,73.18
2019-05-30T08:28:10.783Z,75.17
2019-05-30T08:29:10.631Z,78.97
2019-05-30T08:30:10.834Z,74.12
2019-05-30T08:31:10.654Z,76.97
2019-05-30T08:32:10.668Z,82.34
2019-05-30T08:33:10.689Z,83.86
2019-05-30T08:34:10.690Z,83.39
2019-05-30T08:35:10.717Z,80.29
2019-05-30T08:36:10.853Z,77.53
2019-05-30T08:37:10.752Z,75.72
2019-05-30T08:38:10.945Z,74.87
2019-05-30T08:39:10.804Z,74.92
2019-05-30T08:40:10.886Z,74.44
2019-05-30T08:41:10.761Z,76.44
2019-05-30T08:42:10.810Z,78.63
2019-05-30T08:43:10.816Z,76.82
2019-05-30T08:44:10.854Z,76.63
2019-05-30T08:45:10.809Z,70.64
2019-05-30T08:46:10.817Z,75.87
2019-05-30T08:47:10.829Z,76.16
2019-05-30T08:48:10.875Z,76.54
2019-05-30T08:49:10.869Z,77.58
2019-05-30T08:50:10.890Z,85.71
2019-05-30T08:51:10.881Z,79.52
2019-05-30T08:52:10.897Z,71.34
2019-05-30T08:53:10.962Z,67.88
2019-05-30T08:54:13.689Z,76.48
2019-05-30T08:55:10.984Z,76.10
2019-05-30T08:56:10.988Z,76.42
2019-05-30T08:57:10.964Z,71.09
2019-05-30T08:58:10.990Z,74.90
2019-05-30T08:59:11.111Z,65.48
2019-05-30T09:00:10.999Z,71.44
2019-05-30T09:01:11.101Z,74.04
2019-05-30T09:02:11.012Z,69.35
2019-05-30T09:03:11.075Z,70.20
2019-05-30T09:04:11.040Z,73.06
2019-05-30T09:05:11.027Z,71.88
2019-05-30T09:06:11.041Z,68.36
2019-05-30T09:07:11.093Z,62.75
2019-05-30T09:08:11.065Z,62.75
2019-05-30T09:09:11.096Z,64.18
2019-05-30T09:10:11.084Z,66.94
2019-05-30T09:11:11.159Z,73.59
2019-05-30T09:12:11.145Z,71.25
2019-05-30T09:13:11.123Z,70.77
2019-05-30T09:14:11.137Z,69.63
2019-05-30T09:15:11.164Z,65.73
2019-05-30T09:16:11.244Z,67.73
2019-05-30T09:17:11.179Z,72.58
2019-05-30T09:18:11.274Z,78.52
2019-05-30T09:19:11.203Z,68.62
2019-05-30T09:20:11.201Z,72.52
2019-05-30T09:21:11.266Z,66.59
2019-05-30T09:22:11.220Z,67.82
2019-05-30T09:23:11.322Z,71.15
2019-05-30T09:24:11.321Z,73.57
2019-05-30T09:25:11.391Z,72.05
2019-05-30T09:26:11.274Z,68.33
2019-05-30T09:27:11.325Z,69.38
2019-05-30T09:28:11.288Z,68.77
2019-05-30T09:29:11.317Z,74.04
2019-05-30T09:30:11.309Z,69.85
2019-05-30T09:31:11.366Z,72.24
2019-05-30T09:32:11.397Z,73.41
2019-05-30T09:33:11.377Z,69.32
2019-05-30T09:34:12.153Z,67.41
2019-05-30T09:35:11.418Z,64.24
2019-05-30T09:36:13.454Z,68.24
2019-05-30T09:37:11.420Z,67.76
2019-05-30T09:38:11.581Z,65.95
2019-05-30T09:39:11.419Z,68.75
2019-05-30T09:40:11.499Z,69.79
2019-05-30T09:41:11.559Z,69.76
2019-05-30T09:42:11.490Z,68.81
2019-05-30T09:43:11.472Z,69.04
2019-05-30T09:44:11.494Z,67.32
2019-05-30T09:45:11.502Z,70.47
2019-05-30T09:46:11.678Z,68.08
2019-05-30T09:47:11.737Z,63.04
2019-05-30T09:48:11.581Z,64.84
2019-05-30T09:49:11.587Z,67.80
2019-05-30T09:50:11.609Z,67.51
2019-05-30T09:51:11.604Z,67.13
2019-05-30T09:52:11.705Z,65.89
2019-05-30T09:53:11.613Z,64.28
2019-05-30T09:54:11.650Z,67.03
2019-05-30T09:55:11.651Z,70.65
2019-05-30T09:56:11.663Z,68.46
2019-05-30T09:57:11.660Z,67.51
2019-05-30T09:58:11.658Z,66.50
2019-05-30T09:59:11.682Z,71.17
2019-05-30T10:00:11.976Z,75.07
2019-05-30T10:01:11.689Z,67.20
2019-05-30T10:02:11.793Z,65.16
2019-05-30T10:03:11.728Z,71.17
2019-05-30T10:04:11.736Z,67.83
2019-05-30T10:05:11.787Z,64.69
2019-05-30T10:06:11.744Z,65.03
2019-05-30T10:07:11.765Z,71.93
2019-05-30T10:08:11.814Z,66.50
2019-05-30T10:09:11.799Z,67.48
2019-05-30T10:10:11.865Z,66.63
2019-05-30T10:11:11.844Z,63.35
2019-05-30T10:12:11.833Z,66.50
2019-05-30T10:13:11.985Z,66.50
2019-05-30T10:14:11.878Z,61.64
2019-05-30T10:15:12.074Z,61.83
2019-05-30T10:16:11.889Z,64.50
2019-05-30T10:17:11.931Z,62.30
2019-05-30T10:18:12.049Z,63.17
2019-05-30T10:19:11.919Z,63.45
2019-05-30T10:20:11.955Z,64.81
2019-05-30T10:21:11.974Z,62.12
2019-05-30T10:22:11.976Z,60.59
2019-05-30T10:23:11.970Z,67.35
2019-05-30T10:24:12.022Z,67.29
2019-05-30T10:25:12.041Z,61.19
2019-05-30T10:26:12.100Z,59.51
2019-05-30T10:27:12.334Z,60.63
2019-05-30T10:28:12.040Z,63.10
2019-05-30T10:29:12.211Z,62.91
2019-05-30T10:30:12.063Z,68.37
2019-05-30T10:31:12.157Z,62.65
2019-05-30T10:32:12.156Z,63.70
2019-05-30T10:33:12.095Z,62.18
2019-05-30T10:34:12.196Z,63.60
2019-05-30T10:35:12.127Z,64.97
2019-05-30T10:36:14.716Z,58.30
2019-05-30T10:37:12.375Z,58.30
2019-05-30T10:38:12.221Z,65.83
2019-05-30T10:39:12.407Z,65.83
2019-05-30T10:40:12.204Z,63.39
2019-05-30T10:41:12.424Z,63.57
2019-05-30T10:42:12.364Z,63.10
2019-05-30T10:43:12.241Z,59.86
2019-05-30T10:44:12.246Z,59.28
2019-05-30T10:45:12.260Z,59.86
2019-05-30T10:46:12.275Z,61.67
2019-05-30T10:47:12.449Z,61.86
2019-05-30T10:48:12.298Z,61.51
2019-05-30T10:49:12.312Z,58.75
2019-05-30T10:50:12.338Z,60.46
2019-05-30T10:51:12.844Z,62.27
2019-05-30T10:52:12.614Z,59.51
2019-05-30T10:53:12.396Z,55.60
2019-05-30T10:54:12.372Z,56.55
2019-05-30T10:55:12.532Z,58.65
2019-05-30T10:56:12.456Z,57.70
2019-05-30T10:57:12.450Z,58.75
2019-05-30T10:58:12.516Z,56.84
2019-05-30T10:59:12.509Z,54.43
2019-05-30T11:00:12.496Z,55.07
2019-05-30T11:01:12.494Z,58.30
2019-05-30T11:02:12.534Z,58.72
2019-05-30T11:03:12.529Z,59.60
2019-05-30T11:04:12.518Z,59.12
2019-05-30T11:05:12.665Z,55.09
2019-05-30T11:06:12.564Z,58.26
2019-05-30T11:07:12.603Z,60.78
2019-05-30T11:08:12.603Z,58.39
2019-05-30T11:09:12.617Z,56.26
2019-05-30T11:10:12.610Z,58.07
2019-05-30T11:11:12.710Z,57.50
2019-05-30T11:12:12.734Z,55.66
2019-05-30T11:13:12.681Z,56.14
2019-05-30T11:14:12.662Z,56.68
2019-05-30T11:15:12.687Z,59.19
2019-05-30T11:16:12.719Z,58.65
2019-05-30T11:17:12.708Z,56.36
2019-05-30T11:18:12.901Z,55.79
2019-05-30T11:19:12.727Z,56.26
2019-05-30T11:20:12.787Z,54.36
2019-05-30T11:21:12.823Z,56.74
2019-05-30T11:22:12.790Z,56.93
2019-05-30T11:23:12.782Z,55.34
2019-05-30T11:24:12.808Z,59.06
2019-05-30T11:25:12.872Z,55.08
2019-05-30T11:26:12.904Z,54.19
2019-05-30T11:27:12.831Z,59.38
2019-05-30T11:28:12.849Z,57.75
2019-05-30T11:29:12.890Z,56.70
2019-05-30T11:30:12.890Z,51.26
2019-05-30T11:31:12.903Z,49.90
2019-05-30T11:32:12.904Z,53.36
2019-05-30T11:33:12.957Z,51.50
2019-05-30T11:34:13.017Z,52.45
2019-05-30T11:35:13.004Z,56.07
2019-05-30T11:36:12.971Z,55.50
2019-05-30T11:37:18.911Z,56.01
2019-05-30T11:38:12.995Z,54.57
2019-05-30T11:39:13.072Z,51.07
2019-05-30T11:40:13.044Z,51.07
2019-05-30T11:41:13.066Z,52.50
2019-05-30T11:42:13.082Z,48.85
2019-05-30T11:43:13.073Z,51.52
2019-05-30T11:44:13.180Z,53.65
2019-05-30T11:45:13.106Z,57.09
2019-05-30T11:46:13.176Z,52.98
2019-05-30T11:47:13.118Z,51.07
2019-05-30T11:48:13.145Z,54.34
2019-05-30T11:49:13.153Z,55.01
2019-05-30T11:50:13.289Z,51.48
2019-05-30T11:51:13.366Z,50.62
2019-05-30T11:52:13.202Z,51.54
2019-05-30T11:53:13.209Z,51.45
2019-05-30T11:54:13.265Z,52.03
2019-05-30T11:55:13.283Z,52.40
2019-05-30T11:56:13.279Z,54.06
2019-05-30T11:57:13.369Z,49.42
2019-05-30T11:58:13.285Z,53.17
2019-05-30T11:59:13.324Z,53.08
2019-05-30T12:00:13.344Z,51.33
2019-05-30T12:01:13.333Z,52.57
2019-05-30T12:02:13.397Z,57.94
2019-05-30T12:03:13.467Z,54.72
2019-05-30T12:04:13.396Z,57.43
2019-05-30T12:05:13.964Z,51.79
2019-05-30T12:06:13.405Z,50.14
2019-05-30T12:07:13.425Z,54.66
2019-05-30T12:08:13.519Z,51.57
2019-05-30T12:09:14.652Z,51.38
2019-05-30T12:10:13.472Z,51.79
2019-05-30T12:11:13.536Z,50.24
2019-05-30T12:12:13.497Z,48.39
2019-05-30T12:13:13.754Z,50.49
2019-05-30T12:14:13.753Z,54.53
2019-05-30T12:15:13.620Z,54.27
2019-05-30T12:16:13.576Z,50.84
2019-05-30T12:17:13.577Z,49.09
2019-05-30T12:18:13.600Z,48.93
2019-05-30T12:19:13.615Z,47.11
2019-05-30T12:20:13.635Z,47.68
2019-05-30T12:21:13.659Z,46.77
2019-05-30T12:22:14.009Z,47.44
2019-05-30T12:23:13.670Z,48.97
2019-05-30T12:24:13.728Z,50.24
2019-05-30T12:25:13.710Z,48.68
2019-05-30T12:26:13.715Z,50.14
2019-05-30T12:27:13.816Z,48.30
2019-05-30T12:28:13.748Z,48.88
2019-05-30T12:29:13.782Z,48.37
2019-05-30T12:30:13.777Z,51.19
2019-05-30T12:31:13.884Z,50.62
2019-05-30T12:32:13.919Z,51.79
2019-05-30T12:33:13.859Z,48.90
2019-05-30T12:34:13.839Z,47.71
2019-05-30T12:35:14.032Z,48.94
2019-05-30T12:36:13.894Z,55.18
2019-05-30T12:37:13.887Z,51.86
2019-05-30T12:38:13.912Z,54.37
2019-05-30T12:39:13.928Z,47.97
2019-05-30T12:40:13.940Z,47.47
2019-05-30T12:41:13.948Z,50.07
2019-05-30T12:42:13.959Z,50.19
2019-05-30T12:43:14.033Z,47.56
2019-05-30T12:44:14.067Z,52.65
2019-05-30T12:45:14.083Z,46.42
2019-05-30T12:46:14.022Z,48.64
2019-05-30T12:47:14.038Z,49.04
2019-05-30T12:48:14.166Z,50.48
2019-05-30T12:49:14.071Z,48.38
2019-05-30T12:50:16.686Z,46.01
2019-05-30T12:51:14.140Z,47.44
2019-05-30T12:52:14.121Z,47.73
2019-05-30T12:53:14.130Z,51.57